Terminal Aerodrome Forecast
Issued by NWS Binghamton, NY

Home | Current Version | Previous Version | Text Only | Print | Product List | Glossary On
Versions: 1 2 3 4 5 6 7 8 9 10 11 12 13 14
831
FTUS41 KBGM 272323
TAFBGM
TAF
KBGM 272323Z 2800/2824 VRB03KT P6SM FEW050 SCT200
      TEMPO 2808/2811 4SM BR
     FM281700 26006KT P6SM BKN040=

USA.gov is the U.S. government's official web portal to all federal, state and local government web resources and services.